createdAt,value
2018-02-08T00:01:44.276Z,81.86
2018-02-08T00:04:11.781Z,82.55
2018-02-08T00:06:39.253Z,82.53
2018-02-08T00:09:06.696Z,81.79
2018-02-08T00:11:34.170Z,81.08
2018-02-08T00:14:01.641Z,81.56
2018-02-08T00:16:29.125Z,81.89
2018-02-08T00:18:56.595Z,81.40
2018-02-08T00:21:24.053Z,82.15
2018-02-08T00:23:51.554Z,82.21
2018-02-08T00:26:19.001Z,81.61
2018-02-08T00:28:46.469Z,81.48
2018-02-08T00:31:13.932Z,80.46
2018-02-08T00:33:41.382Z,81.27
2018-02-08T00:36:09.041Z,81.53
2018-02-08T00:38:36.584Z,81.07
2018-02-08T00:41:04.068Z,80.56
2018-02-08T00:43:31.537Z,80.58
2018-02-08T00:45:58.985Z,80.80
2018-02-08T00:48:26.456Z,81.19
2018-02-08T00:50:53.904Z,80.20
2018-02-08T00:53:21.348Z,80.21
2018-02-08T00:55:48.897Z,79.91
2018-02-08T00:58:16.345Z,80.98
2018-02-08T01:00:44.009Z,80.57
2018-02-08T01:03:11.457Z,79.96
2018-02-08T01:05:38.948Z,80.21
2018-02-08T01:08:06.412Z,80.38
2018-02-08T01:10:33.859Z,80.17
2018-02-08T01:13:01.503Z,80.08
2018-02-08T01:15:28.948Z,79.77
2018-02-08T01:17:56.416Z,79.76
2018-02-08T01:20:23.892Z,79.89
2018-02-08T01:22:51.333Z,81.25
2018-02-08T01:25:18.990Z,81.53
2018-02-08T01:27:46.437Z,81.18
2018-02-08T01:30:13.914Z,81.50
2018-02-08T01:32:41.516Z,81.39
2018-02-08T01:35:08.972Z,81.27
2018-02-08T01:37:36.581Z,81.45
2018-02-08T01:40:04.037Z,81.02
2018-02-08T01:42:31.486Z,80.10
2018-02-08T01:44:58.953Z,79.95
2018-02-08T01:47:26.632Z,81.06
2018-02-08T01:49:54.485Z,81.12
2018-02-08T01:52:21.940Z,80.31
2018-02-08T01:54:49.385Z,81.38
2018-02-08T01:57:16.857Z,81.31
2018-02-08T01:59:44.312Z,82.18
2018-02-08T02:02:11.965Z,81.01
2018-02-08T02:04:39.417Z,82.47
2018-02-08T02:07:06.881Z,82.08
2018-02-08T02:09:34.348Z,81.35
2018-02-08T02:12:01.859Z,82.14
2018-02-08T02:14:29.340Z,82.14
2018-02-08T02:16:56.804Z,81.92
2018-02-08T02:19:24.254Z,82.44
2018-02-08T02:21:51.784Z,83.32
2018-02-08T02:24:19.233Z,83.39
2018-02-08T02:26:46.938Z,83.42
2018-02-08T02:29:14.396Z,83.46
2018-02-08T02:31:41.942Z,83.92
2018-02-08T02:34:09.424Z,82.69
2018-02-08T02:36:36.920Z,82.41
2018-02-08T02:39:04.396Z,80.60
2018-02-08T02:41:31.841Z,80.07
2018-02-08T02:43:59.677Z,79.78
2018-02-08T02:46:27.173Z,80.65
2018-02-08T02:48:54.622Z,80.49
2018-02-08T02:51:22.222Z,79.86
2018-02-08T02:53:49.719Z,79.54
2018-02-08T02:56:17.161Z,79.75
2018-02-08T02:58:44.662Z,80.45
2018-02-08T03:01:12.113Z,80.67
2018-02-08T03:03:39.589Z,81.14
2018-02-08T03:06:07.065Z,81.19
2018-02-08T03:08:34.544Z,81.36
2018-02-08T03:11:02.005Z,80.39
2018-02-08T03:13:29.484Z,80.79
2018-02-08T03:15:57.104Z,80.14
2018-02-08T03:18:24.550Z,80.17
2018-02-08T03:20:52.006Z,80.58
2018-02-08T03:23:19.481Z,80.82
2018-02-08T03:25:46.929Z,81.37
2018-02-08T03:28:14.410Z,81.44
2018-02-08T03:30:43.389Z,80.90
2018-02-08T03:33:10.846Z,81.29
2018-02-08T03:35:38.314Z,81.04
2018-02-08T03:38:05.756Z,81.45
2018-02-08T03:40:33.240Z,80.62
2018-02-08T03:43:00.697Z,80.83
2018-02-08T03:45:28.161Z,80.66
2018-02-08T03:47:55.624Z,80.78
2018-02-08T03:50:23.098Z,81.61
2018-02-08T03:52:50.580Z,81.09
2018-02-08T03:55:18.035Z,81.91
2018-02-08T03:57:45.492Z,82.46
2018-02-08T04:00:12.972Z,82.71
2018-02-08T04:02:40.434Z,82.10
2018-02-08T04:05:08.167Z,82.17
2018-02-08T04:07:35.609Z,82.44
2018-02-08T04:10:03.061Z,83.23
2018-02-08T04:12:30.542Z,84.39
2018-02-08T04:14:57.993Z,84.67
2018-02-08T04:17:25.752Z,84.46
2018-02-08T04:19:53.200Z,84.48
2018-02-08T04:22:20.657Z,84.24
2018-02-08T04:24:48.126Z,84.06
2018-02-08T04:27:15.608Z,83.01
2018-02-08T04:29:43.262Z,81.92
2018-02-08T04:32:10.712Z,81.88
2018-02-08T04:34:38.212Z,81.69
2018-02-08T04:37:05.678Z,81.79
2018-02-08T04:39:44.915Z,81.90
2018-02-08T04:42:24.197Z,81.43
2018-02-08T04:45:03.498Z,82.02
2018-02-08T04:50:31.858Z,82.22
2018-02-08T04:52:59.576Z,81.90
2018-02-08T04:55:27.045Z,81.96
2018-02-08T04:57:54.504Z,82.12
2018-02-08T05:00:22.009Z,82.46
2018-02-08T05:02:53.041Z,82.53
2018-02-08T05:05:20.541Z,81.75
2018-02-08T05:07:47.988Z,81.97
2018-02-08T05:10:15.441Z,82.51
2018-02-08T05:12:42.916Z,82.52
2018-02-08T05:15:10.401Z,83.05
2018-02-08T05:17:38.137Z,83.04
2018-02-08T05:20:05.593Z,82.72
2018-02-08T05:22:33.046Z,82.47
2018-02-08T05:25:00.513Z,82.27
2018-02-08T05:27:27.961Z,82.03
2018-02-08T05:29:55.435Z,82.64
2018-02-08T05:32:22.881Z,81.92
2018-02-08T05:34:50.324Z,81.87
2018-02-08T05:37:17.805Z,82.14
2018-02-08T05:39:45.265Z,82.70
2018-02-08T05:42:12.750Z,82.31
2018-02-08T05:44:40.206Z,82.56
2018-02-08T05:47:07.653Z,82.57
2018-02-08T05:49:35.141Z,82.16
2018-02-08T05:52:02.590Z,82.22
2018-02-08T05:54:30.200Z,82.16
2018-02-08T05:56:57.681Z,82.05
2018-02-08T05:59:25.134Z,81.96
2018-02-08T06:01:52.812Z,82.13
2018-02-08T06:04:20.275Z,82.60
2018-02-08T06:06:47.761Z,82.41
2018-02-08T06:09:15.209Z,82.01
2018-02-08T06:11:42.661Z,82.71
2018-02-08T06:14:10.132Z,82.25
2018-02-08T06:16:37.584Z,81.54
2018-02-08T06:19:05.063Z,81.78
2018-02-08T06:21:32.517Z,81.92
2018-02-08T06:23:59.970Z,81.33
2018-02-08T06:26:27.440Z,82.62
2018-02-08T06:28:54.935Z,82.12
2018-02-08T06:31:22.452Z,82.27
2018-02-08T06:33:49.900Z,82.10
2018-02-08T06:36:17.380Z,82.93
2018-02-08T06:38:44.854Z,83.30
2018-02-08T06:41:12.319Z,83.53
2018-02-08T06:43:40.133Z,83.09
2018-02-08T06:46:07.609Z,83.74
2018-02-08T06:48:35.084Z,83.58
2018-02-08T06:51:02.556Z,83.42
2018-02-08T06:53:30.012Z,84.06
2018-02-08T06:55:58.049Z,83.74
2018-02-08T06:58:25.876Z,84.18
2018-02-08T07:00:53.673Z,84.51
2018-02-08T07:03:21.225Z,84.50
2018-02-08T07:05:50.324Z,84.58
2018-02-08T07:08:19.700Z,84.50
2018-02-08T07:10:49.798Z,84.51
2018-02-08T07:13:18.856Z,84.74
2018-02-08T07:15:47.579Z,84.69
2018-02-08T07:18:15.080Z,84.56
2018-02-08T07:20:42.552Z,84.00
2018-02-08T07:23:10.001Z,83.67
2018-02-08T07:25:37.487Z,84.03
2018-02-08T07:28:04.933Z,84.31
2018-02-08T07:30:32.428Z,84.72
2018-02-08T07:32:59.894Z,84.48
2018-02-08T07:35:27.342Z,84.30
2018-02-08T07:37:54.883Z,84.46
2018-02-08T07:40:22.337Z,84.64
2018-02-08T07:42:49.793Z,84.50
2018-02-08T07:45:17.278Z,84.57
2018-02-08T07:47:44.728Z,84.52
2018-02-08T07:50:12.425Z,84.47
2018-02-08T07:52:39.885Z,84.98
2018-02-08T07:55:07.337Z,85.05
2018-02-08T07:57:34.804Z,85.59
2018-02-08T08:00:02.253Z,86.01
2018-02-08T08:02:30.061Z,86.01
2018-02-08T08:04:57.513Z,85.61
2018-02-08T08:07:24.980Z,84.86
2018-02-08T08:09:52.453Z,84.79
2018-02-08T08:12:19.925Z,84.25
2018-02-08T08:14:47.637Z,83.46
2018-02-08T08:17:15.141Z,82.59
2018-02-08T08:19:42.610Z,82.26
2018-02-08T08:22:10.093Z,81.95
2018-02-08T08:24:37.549Z,82.00
2018-02-08T08:27:05.024Z,82.73
2018-02-08T08:29:32.483Z,81.30
2018-02-08T08:31:59.933Z,81.29
2018-02-08T08:34:27.409Z,80.59
2018-02-08T08:36:54.864Z,82.18
2018-02-08T08:39:22.565Z,80.93
2018-02-08T08:41:50.017Z,79.56
2018-02-08T08:44:17.526Z,79.42
2018-02-08T08:46:45.002Z,78.82
2018-02-08T08:49:12.457Z,79.03
2018-02-08T08:51:39.932Z,78.00
2018-02-08T08:54:07.464Z,78.48
2018-02-08T08:56:34.935Z,78.50
2018-02-08T08:59:02.401Z,78.12
2018-02-08T09:01:29.849Z,78.98
2018-02-08T09:03:57.576Z,79.53
2018-02-08T09:06:25.025Z,78.77
2018-02-08T09:08:52.475Z,78.57
2018-02-08T09:11:19.970Z,78.60
2018-02-08T09:13:47.884Z,78.39
2018-02-08T09:16:15.353Z,78.28
2018-02-08T09:18:42.825Z,76.91
2018-02-08T09:21:10.273Z,75.97
2018-02-08T09:23:37.760Z,75.87
2018-02-08T09:26:05.210Z,76.04
2018-02-08T09:28:32.830Z,76.19
2018-02-08T09:31:00.287Z,75.56
2018-02-08T09:33:27.738Z,75.22
2018-02-08T09:35:55.204Z,76.70
2018-02-08T09:38:22.651Z,76.25
2018-02-08T09:40:50.365Z,74.35
2018-02-08T09:43:17.830Z,74.79
2018-02-08T09:45:45.329Z,74.02
2018-02-08T09:48:12.793Z,74.88
2018-02-08T09:50:40.241Z,74.69
2018-02-08T09:53:07.750Z,74.53
2018-02-08T09:55:35.215Z,74.84
2018-02-08T09:58:02.682Z,74.38
2018-02-08T10:00:30.156Z,74.18
2018-02-08T10:02:57.601Z,73.80
2018-02-08T10:05:25.101Z,73.07
2018-02-08T10:07:52.549Z,72.36
2018-02-08T10:10:19.997Z,73.03
2018-02-08T10:12:47.504Z,73.06
2018-02-08T10:15:14.969Z,72.44
2018-02-08T10:17:42.600Z,72.36
2018-02-08T10:20:10.060Z,72.56
2018-02-08T10:22:37.876Z,73.00
2018-02-08T10:25:05.361Z,72.38
2018-02-08T10:27:32.804Z,72.21
2018-02-08T10:30:00.472Z,72.32
2018-02-08T10:32:28.108Z,72.00
2018-02-08T10:34:55.730Z,72.02
2018-02-08T10:37:23.211Z,72.30
2018-02-08T10:39:50.677Z,71.73
2018-02-08T10:42:18.476Z,72.28
2018-02-08T10:44:45.929Z,70.73
2018-02-08T10:47:13.392Z,72.21
2018-02-08T10:49:40.860Z,72.22
2018-02-08T10:52:08.305Z,71.43
2018-02-08T10:54:35.957Z,71.80
2018-02-08T10:57:03.414Z,71.71
2018-02-08T10:59:30.869Z,70.78
2018-02-08T11:01:58.336Z,71.36
2018-02-08T11:04:25.784Z,70.82
2018-02-08T11:06:53.272Z,69.62
2018-02-08T11:09:20.728Z,69.62
2018-02-08T11:11:48.199Z,71.19
2018-02-08T11:14:15.669Z,70.39
2018-02-08T11:16:43.130Z,70.96
2018-02-08T11:19:10.927Z,69.37
2018-02-08T11:21:38.372Z,69.72
2018-02-08T11:24:05.820Z,67.92
2018-02-08T11:26:33.300Z,68.31
2018-02-08T11:29:00.757Z,70.00
2018-02-08T11:31:28.231Z,69.57
2018-02-08T11:33:55.689Z,69.01
2018-02-08T11:36:23.133Z,69.04
2018-02-08T11:38:50.625Z,69.42
2018-02-08T11:41:18.097Z,69.53
2018-02-08T11:43:45.799Z,69.33
2018-02-08T11:46:13.244Z,68.74
2018-02-08T11:48:40.690Z,68.52
2018-02-08T11:51:08.165Z,67.94
2018-02-08T11:53:35.613Z,67.93
2018-02-08T11:56:03.286Z,67.63
2018-02-08T11:58:30.738Z,68.15
2018-02-08T12:00:58.184Z,67.96
2018-02-08T12:03:25.657Z,69.15
2018-02-08T12:05:53.107Z,68.65
2018-02-08T12:08:20.770Z,66.85
2018-02-08T12:10:48.292Z,66.78
2018-02-08T12:13:15.789Z,66.61
2018-02-08T12:15:43.256Z,65.95
2018-02-08T12:18:10.705Z,67.24
2018-02-08T12:20:38.409Z,66.08
2018-02-08T12:23:05.819Z,65.86
2018-02-08T12:25:33.281Z,66.56
2018-02-08T12:28:01.709Z,66.81
2018-02-08T12:30:29.164Z,63.84
2018-02-08T12:32:56.777Z,65.55
2018-02-08T12:35:24.243Z,66.17
2018-02-08T12:37:51.705Z,65.86
2018-02-08T12:40:19.194Z,64.97
2018-02-08T12:42:46.640Z,65.12
2018-02-08T12:45:14.237Z,64.32
2018-02-08T12:47:41.684Z,63.35
2018-02-08T12:50:09.136Z,63.34
2018-02-08T12:52:36.688Z,62.61
2018-02-08T12:55:04.137Z,61.85
2018-02-08T12:57:31.992Z,61.77
2018-02-08T12:59:59.488Z,62.89
2018-02-08T13:02:26.932Z,63.36
2018-02-08T13:04:54.428Z,62.97
2018-02-08T13:07:21.899Z,63.36
2018-02-08T13:09:49.537Z,63.19
2018-02-08T13:12:16.985Z,62.36
2018-02-08T13:14:44.437Z,62.55
2018-02-08T13:17:11.915Z,61.70
2018-02-08T13:19:39.367Z,62.55
2018-02-08T13:22:07.080Z,62.85
2018-02-08T13:24:34.531Z,62.44
2018-02-08T13:27:01.981Z,62.32
2018-02-08T13:29:29.453Z,62.13
2018-02-08T13:31:57.433Z,63.28
2018-02-08T13:34:24.910Z,62.27
2018-02-08T13:36:52.361Z,60.88
2018-02-08T13:39:25.465Z,61.67
2018-02-08T13:41:52.921Z,61.73
2018-02-08T13:44:20.450Z,60.47
2018-02-08T13:46:47.932Z,61.42
2018-02-08T13:49:31.266Z,61.12
2018-02-08T13:55:10.377Z,62.28
2018-02-08T13:57:38.818Z,62.34
2018-02-08T14:00:12.324Z,61.56
2018-02-08T14:02:39.789Z,61.30
2018-02-08T14:05:07.264Z,62.05
2018-02-08T14:07:34.974Z,61.77
2018-02-08T14:10:02.509Z,61.16
2018-02-08T14:12:29.970Z,61.67
2018-02-08T14:14:57.433Z,61.44
2018-02-08T14:17:24.877Z,62.06
2018-02-08T14:19:52.569Z,61.66
2018-02-08T14:22:20.072Z,61.03
2018-02-08T14:24:47.521Z,59.08
2018-02-08T14:27:14.998Z,58.84
2018-02-08T14:29:42.446Z,58.82
2018-02-08T14:32:10.579Z,58.94
2018-02-08T14:34:38.038Z,59.25
2018-02-08T14:37:05.543Z,59.46
2018-02-08T14:39:33.015Z,59.21
2018-02-08T14:42:00.478Z,59.98
2018-02-08T14:44:28.205Z,59.52
2018-02-08T14:46:55.655Z,60.05
2018-02-08T14:49:23.220Z,60.23
2018-02-08T14:51:50.693Z,60.48
2018-02-08T14:54:18.137Z,59.64
2018-02-08T14:56:45.961Z,59.92
2018-02-08T14:59:13.501Z,60.10
2018-02-08T15:01:40.988Z,59.74
2018-02-08T15:04:08.463Z,60.44
2018-02-08T15:06:35.909Z,60.85
2018-02-08T15:09:03.589Z,60.26
2018-02-08T15:11:33.242Z,60.21
2018-02-08T15:14:00.958Z,61.21
2018-02-08T15:16:28.425Z,60.63
2018-02-08T15:18:55.886Z,61.22
2018-02-08T15:21:23.500Z,60.86
2018-02-08T15:23:50.944Z,61.23
2018-02-08T15:26:18.394Z,61.59
2018-02-08T15:28:45.861Z,61.74
2018-02-08T15:31:13.353Z,61.42
2018-02-08T15:33:40.981Z,61.76
2018-02-08T15:36:08.430Z,61.66
2018-02-08T15:38:35.893Z,61.58
2018-02-08T15:41:03.366Z,60.79
2018-02-08T15:43:30.814Z,60.20
2018-02-08T15:45:58.677Z,60.18
2018-02-08T15:48:26.127Z,61.38
2018-02-08T15:50:53.605Z,61.04
2018-02-08T15:53:21.074Z,61.35
2018-02-08T15:55:48.517Z,61.69
2018-02-08T15:58:16.920Z,62.73
2018-02-08T16:00:44.373Z,64.05
2018-02-08T16:03:11.834Z,65.56
2018-02-08T16:05:39.322Z,65.39
2018-02-08T16:08:06.773Z,66.31
2018-02-08T16:10:34.469Z,67.56
2018-02-08T16:13:01.915Z,67.16
2018-02-08T16:15:29.368Z,67.62
2018-02-08T16:17:56.837Z,68.32
2018-02-08T16:20:24.310Z,69.56
2018-02-08T16:22:52.085Z,69.23
2018-02-08T16:25:19.531Z,69.42
2018-02-08T16:27:47.016Z,69.04
2018-02-08T16:30:14.552Z,69.91
2018-02-08T16:32:41.953Z,69.74
2018-02-08T16:35:09.531Z,71.09
2018-02-08T16:37:37.018Z,71.95
2018-02-08T16:40:04.473Z,72.51
2018-02-08T16:42:31.937Z,72.69
2018-02-08T16:44:59.410Z,73.21
2018-02-08T16:47:27.224Z,73.84
2018-02-08T16:49:54.669Z,74.14
2018-02-08T16:52:22.122Z,74.18
2018-02-08T16:54:49.592Z,74.66
2018-02-08T16:57:17.037Z,74.67
2018-02-08T16:59:44.516Z,75.01
2018-02-08T17:02:12.005Z,74.68
2018-02-08T17:04:39.453Z,74.98
2018-02-08T17:07:06.925Z,74.59
2018-02-08T17:09:34.368Z,74.46
2018-02-08T17:12:01.834Z,74.73
2018-02-08T17:14:29.332Z,74.35
2018-02-08T17:16:56.781Z,74.78
2018-02-08T17:19:24.226Z,75.05
2018-02-08T17:21:51.697Z,75.61
2018-02-08T17:24:19.570Z,75.35
2018-02-08T17:26:47.030Z,75.33
2018-02-08T17:29:14.801Z,75.45
2018-02-08T17:31:42.261Z,75.35
2018-02-08T17:34:09.744Z,75.21
2018-02-08T17:36:37.224Z,75.62
2018-02-08T17:39:04.693Z,76.41
2018-02-08T17:41:32.147Z,76.29
2018-02-08T17:43:59.677Z,76.72
2018-02-08T17:49:01.034Z,76.57
2018-02-08T17:51:28.532Z,77.18
2018-02-08T17:53:56.020Z,76.90
2018-02-08T17:56:23.701Z,77.18
2018-02-08T17:58:51.168Z,77.67
2018-02-08T18:01:18.646Z,78.09
2018-02-08T18:03:46.424Z,78.25
2018-02-08T18:06:13.916Z,78.30
2018-02-08T18:08:41.381Z,78.65
2018-02-08T18:11:08.872Z,79.00
2018-02-08T18:13:36.357Z,78.52
2018-02-08T18:16:04.157Z,78.72
2018-02-08T18:18:31.648Z,78.66
2018-02-08T18:20:59.101Z,78.68
2018-02-08T18:23:26.586Z,79.04
2018-02-08T18:25:54.039Z,79.14
2018-02-08T18:28:21.524Z,79.87
2018-02-08T18:30:49.022Z,79.88
2018-02-08T18:33:16.475Z,80.62
2018-02-08T18:35:43.949Z,82.35
2018-02-08T18:38:11.401Z,81.67
2018-02-08T18:40:39.287Z,82.22
2018-02-08T18:43:06.741Z,81.66
2018-02-08T18:45:34.196Z,81.34
2018-02-08T18:48:01.688Z,82.44
2018-02-08T18:50:29.137Z,82.43
2018-02-08T18:52:56.718Z,82.55
2018-02-08T18:55:24.175Z,82.83
2018-02-08T18:57:51.623Z,82.82
2018-02-08T19:00:19.120Z,83.37
2018-02-08T19:02:46.580Z,83.43
2018-02-08T19:05:14.090Z,84.34
2018-02-08T19:07:41.541Z,84.21
2018-02-08T19:10:09.090Z,83.98
2018-02-08T19:12:36.628Z,83.53
2018-02-08T19:15:04.118Z,82.64
2018-02-08T19:17:32.025Z,82.91
2018-02-08T19:19:59.503Z,82.84
2018-02-08T19:22:26.955Z,83.43
2018-02-08T19:24:54.424Z,83.30
2018-02-08T19:27:21.891Z,83.32
2018-02-08T19:29:49.598Z,84.67
2018-02-08T19:32:17.069Z,85.07
2018-02-08T19:34:44.525Z,84.96
2018-02-08T19:37:12.205Z,83.80
2018-02-08T19:39:39.661Z,83.64
2018-02-08T19:42:07.555Z,83.33
2018-02-08T19:44:35.075Z,83.53
2018-02-08T19:47:02.549Z,84.47
2018-02-08T19:49:30.160Z,84.71
2018-02-08T19:51:57.614Z,84.61
2018-02-08T19:54:25.407Z,85.34
2018-02-08T19:56:52.917Z,85.22
2018-02-08T19:59:20.387Z,84.22
2018-02-08T20:01:47.943Z,84.13
2018-02-08T20:04:15.429Z,84.44
2018-02-08T20:06:44.348Z,83.21
2018-02-08T20:09:12.793Z,83.17
2018-02-08T20:11:40.287Z,83.17
2018-02-08T20:14:13.705Z,82.98
2018-02-08T20:16:41.233Z,82.57
2018-02-08T20:19:09.032Z,82.60
2018-02-08T20:21:36.533Z,82.81
2018-02-08T20:24:04.524Z,82.91
2018-02-08T20:26:32.210Z,82.67
2018-02-08T20:28:59.874Z,83.48
2018-02-08T20:31:28.979Z,83.83
2018-02-08T20:33:56.474Z,83.93
2018-02-08T20:36:23.999Z,83.85
2018-02-08T20:38:51.507Z,83.52
2018-02-08T20:41:19.005Z,83.73
2018-02-08T20:43:46.482Z,84.09
2018-02-08T20:46:13.972Z,84.36
2018-02-08T20:48:41.847Z,83.73
2018-02-08T20:51:09.319Z,83.42
2018-02-08T20:53:37.376Z,82.33
2018-02-08T20:56:05.318Z,82.36
2018-02-08T20:58:32.829Z,83.47
2018-02-08T21:01:00.592Z,83.58
2018-02-08T21:03:28.185Z,83.00
2018-02-08T21:05:55.749Z,83.09
2018-02-08T21:08:23.349Z,82.20
2018-02-08T21:10:50.819Z,82.26
2018-02-08T21:13:18.644Z,82.89
2018-02-08T21:15:46.092Z,83.46
2018-02-08T21:18:13.610Z,83.59
2018-02-08T21:20:41.105Z,83.83
2018-02-08T21:23:08.562Z,84.41
2018-02-08T21:25:36.243Z,84.07
2018-02-08T21:28:03.836Z,84.19
2018-02-08T21:30:31.341Z,84.20
2018-02-08T21:32:58.814Z,84.03
2018-02-08T21:35:26.309Z,83.66
2018-02-08T21:37:53.798Z,84.37
2018-02-08T21:40:21.245Z,84.18
2018-02-08T21:42:48.693Z,83.72
2018-02-08T21:45:16.167Z,83.58
2018-02-08T21:47:43.618Z,83.33
2018-02-08T21:50:11.296Z,84.15
2018-02-08T21:52:38.803Z,84.71
2018-02-08T21:55:06.285Z,84.67
2018-02-08T21:57:34.206Z,84.71
2018-02-08T22:00:01.982Z,85.07
2018-02-08T22:02:29.606Z,84.82
2018-02-08T22:04:57.088Z,85.15
2018-02-08T22:07:24.608Z,84.98
2018-02-08T22:09:52.410Z,84.64
2018-02-08T22:12:19.913Z,85.08
2018-02-08T22:14:47.443Z,85.41
2018-02-08T22:17:14.913Z,85.22
2018-02-08T22:19:42.398Z,85.13
2018-02-08T22:22:09.889Z,85.07
2018-02-08T22:24:37.383Z,84.71
2018-02-08T22:27:05.094Z,85.23
2018-02-08T22:29:32.540Z,85.16
2018-02-08T22:31:59.989Z,84.97
2018-02-08T22:34:27.477Z,84.42
2018-02-08T22:36:54.952Z,84.98
2018-02-08T22:39:22.689Z,85.04
2018-02-08T22:41:50.202Z,84.64
2018-02-08T22:44:17.642Z,85.13
2018-02-08T22:46:45.113Z,85.40
2018-02-08T22:49:12.580Z,84.89
2018-02-08T22:51:40.080Z,84.88
2018-02-08T22:54:07.529Z,84.73
2018-02-08T22:56:35.840Z,84.86
2018-02-08T22:59:03.321Z,84.94
2018-02-08T23:01:30.775Z,85.13
2018-02-08T23:03:58.491Z,85.93
2018-02-08T23:06:25.961Z,85.99
2018-02-08T23:08:53.413Z,85.79
2018-02-08T23:11:20.899Z,85.50
2018-02-08T23:13:48.361Z,84.88
2018-02-08T23:16:15.976Z,85.16
2018-02-08T23:18:43.433Z,84.94
2018-02-08T23:21:10.889Z,84.43
2018-02-08T23:23:38.365Z,84.85
2018-02-08T23:26:05.819Z,84.49
2018-02-08T23:28:33.314Z,84.08
2018-02-08T23:31:00.777Z,84.90
2018-02-08T23:33:28.247Z,85.05
2018-02-08T23:35:55.764Z,85.48
2018-02-08T23:38:23.229Z,85.53
2018-02-08T23:40:50.941Z,85.65
2018-02-08T23:43:18.394Z,85.89
2018-02-08T23:45:45.852Z,86.21
2018-02-08T23:48:13.320Z,86.88
2018-02-08T23:50:40.777Z,86.19
2018-02-08T23:53:08.445Z,86.21
2018-02-08T23:55:35.896Z,86.40
2018-02-08T23:58:03.363Z,85.95
